sensor_id;sensor_type;location;lat;lon;timestamp;temperature;humidity
68439;SHT31;55421;51.600;5.718;2023-06-14T00:01:10;20.90;43.99
68439;SHT31;55421;51.600;5.718;2023-06-14T00:03:43;20.85;44.03
68439;SHT31;55421;51.600;5.718;2023-06-14T00:06:10;20.81;44.15
68439;SHT31;55421;51.600;5.718;2023-06-14T00:08:37;20.78;44.13
68439;SHT31;55421;51.600;5.718;2023-06-14T00:11:04;20.76;44.16
68439;SHT31;55421;51.600;5.718;2023-06-14T00:13:30;20.75;44.17
68439;SHT31;55421;51.600;5.718;2023-06-14T00:15:57;20.72;44.13
68439;SHT31;55421;51.600;5.718;2023-06-14T00:18:24;20.70;44.20
68439;SHT31;55421;51.600;5.718;2023-06-14T00:20:51;20.69;44.13
68439;SHT31;55421;51.600;5.718;2023-06-14T00:23:18;20.66;44.00
68439;SHT31;55421;51.600;5.718;2023-06-14T00:25:44;20.61;43.92
68439;SHT31;55421;51.600;5.718;2023-06-14T00:28:11;20.59;43.95
68439;SHT31;55421;51.600;5.718;2023-06-14T00:30:38;20.55;43.90
68439;SHT31;55421;51.600;5.718;2023-06-14T00:33:04;20.55;43.89
68439;SHT31;55421;51.600;5.718;2023-06-14T00:35:31;20.55;43.80
68439;SHT31;55421;51.600;5.718;2023-06-14T00:37:58;20.54;43.77
68439;SHT31;55421;51.600;5.718;2023-06-14T00:40:25;20.52;43.61
68439;SHT31;55421;51.600;5.718;2023-06-14T00:42:52;20.50;43.51
68439;SHT31;55421;51.600;5.718;2023-06-14T00:45:18;20.46;43.41
68439;SHT31;55421;51.600;5.718;2023-06-14T00:47:45;20.43;43.37
68439;SHT31;55421;51.600;5.718;2023-06-14T00:50:13;20.41;43.32
68439;SHT31;55421;51.600;5.718;2023-06-14T00:52:40;20.38;43.40
68439;SHT31;55421;51.600;5.718;2023-06-14T00:55:09;20.35;43.43
68439;SHT31;55421;51.600;5.718;2023-06-14T00:57:35;20.32;43.43
68439;SHT31;55421;51.600;5.718;2023-06-14T01:00:03;20.29;43.41
68439;SHT31;55421;51.600;5.718;2023-06-14T01:02:36;20.26;43.36
68439;SHT31;55421;51.600;5.718;2023-06-14T01:05:04;20.23;43.43
68439;SHT31;55421;51.600;5.718;2023-06-14T01:10:45;20.19;43.46
68439;SHT31;55421;51.600;5.718;2023-06-14T01:13:40;20.15;43.33
68439;SHT31;55421;51.600;5.718;2023-06-14T01:16:12;20.12;43.26
68439;SHT31;55421;51.600;5.718;2023-06-14T01:18:40;20.09;43.18
68439;SHT31;55421;51.600;5.718;2023-06-14T01:21:21;20.04;43.14
68439;SHT31;55421;51.600;5.718;2023-06-14T01:23:52;20.00;43.14
68439;SHT31;55421;51.600;5.718;2023-06-14T01:26:19;19.96;43.20
68439;SHT31;55421;51.600;5.718;2023-06-14T01:28:48;19.92;43.20
68439;SHT31;55421;51.600;5.718;2023-06-14T01:31:19;19.89;43.21
68439;SHT31;55421;51.600;5.718;2023-06-14T01:33:50;19.86;43.25
68439;SHT31;55421;51.600;5.718;2023-06-14T01:36:20;19.81;43.31
68439;SHT31;55421;51.600;5.718;2023-06-14T01:38:51;19.76;43.41
68439;SHT31;55421;51.600;5.718;2023-06-14T01:41:19;19.71;43.54
68439;SHT31;55421;51.600;5.718;2023-06-14T01:43:48;19.67;43.61
68439;SHT31;55421;51.600;5.718;2023-06-14T01:46:17;19.66;43.69
68439;SHT31;55421;51.600;5.718;2023-06-14T01:48:44;19.63;43.77
68439;SHT31;55421;51.600;5.718;2023-06-14T01:51:10;19.61;43.83
68439;SHT31;55421;51.600;5.718;2023-06-14T01:53:37;19.59;43.90
68439;SHT31;55421;51.600;5.718;2023-06-14T01:56:04;19.55;43.99
68439;SHT31;55421;51.600;5.718;2023-06-14T01:58:31;19.52;44.02
68439;SHT31;55421;51.600;5.718;2023-06-14T02:00:59;19.48;44.12
68439;SHT31;55421;51.600;5.718;2023-06-14T02:03:27;19.43;44.19
68439;SHT31;55421;51.600;5.718;2023-06-14T02:05:54;19.40;44.33
68439;SHT31;55421;51.600;5.718;2023-06-14T02:08:21;19.36;44.34
68439;SHT31;55421;51.600;5.718;2023-06-14T02:10:49;19.33;44.39
68439;SHT31;55421;51.600;5.718;2023-06-14T02:13:15;19.31;44.48
68439;SHT31;55421;51.600;5.718;2023-06-14T02:15:43;19.29;44.52
68439;SHT31;55421;51.600;5.718;2023-06-14T02:18:11;19.26;44.59
68439;SHT31;55421;51.600;5.718;2023-06-14T02:20:38;19.23;44.70
68439;SHT31;55421;51.600;5.718;2023-06-14T02:23:04;19.20;44.74
68439;SHT31;55421;51.600;5.718;2023-06-14T02:25:33;19.17;44.90
68439;SHT31;55421;51.600;5.718;2023-06-14T02:28:01;19.13;44.90
68439;SHT31;55421;51.600;5.718;2023-06-14T02:30:27;19.09;44.90
68439;SHT31;55421;51.600;5.718;2023-06-14T02:32:54;19.06;45.01
68439;SHT31;55421;51.600;5.718;2023-06-14T02:35:20;19.05;45.11
68439;SHT31;55421;51.600;5.718;2023-06-14T02:37:48;19.02;45.19
68439;SHT31;55421;51.600;5.718;2023-06-14T02:40:14;18.99;45.24
68439;SHT31;55421;51.600;5.718;2023-06-14T02:42:41;18.98;45.33
68439;SHT31;55421;51.600;5.718;2023-06-14T02:45:08;18.94;45.40
68439;SHT31;55421;51.600;5.718;2023-06-14T02:47:35;18.92;45.40
68439;SHT31;55421;51.600;5.718;2023-06-14T02:50:02;18.91;45.50
68439;SHT31;55421;51.600;5.718;2023-06-14T02:52:28;18.90;45.60
68439;SHT31;55421;51.600;5.718;2023-06-14T02:54:55;18.89;45.65
68439;SHT31;55421;51.600;5.718;2023-06-14T02:57:22;18.89;45.69
68439;SHT31;55421;51.600;5.718;2023-06-14T02:59:49;18.88;45.70
68439;SHT31;55421;51.600;5.718;2023-06-14T03:02:15;18.88;45.78
68439;SHT31;55421;51.600;5.718;2023-06-14T03:04:42;18.87;45.80
68439;SHT31;55421;51.600;5.718;2023-06-14T03:07:09;18.87;45.84
68439;SHT31;55421;51.600;5.718;2023-06-14T03:09:36;18.85;45.89
68439;SHT31;55421;51.600;5.718;2023-06-14T03:12:04;18.84;45.99
68439;SHT31;55421;51.600;5.718;2023-06-14T03:14:35;18.81;46.03
68439;SHT31;55421;51.600;5.718;2023-06-14T03:17:02;18.78;46.14
68439;SHT31;55421;51.600;5.718;2023-06-14T03:19:30;18.75;46.20
68439;SHT31;55421;51.600;5.718;2023-06-14T03:21:57;18.70;46.29
68439;SHT31;55421;51.600;5.718;2023-06-14T03:24:24;18.67;46.34
68439;SHT31;55421;51.600;5.718;2023-06-14T03:26:54;18.62;46.46
68439;SHT31;55421;51.600;5.718;2023-06-14T03:29:21;18.59;46.60
68439;SHT31;55421;51.600;5.718;2023-06-14T03:31:58;18.58;46.74
68439;SHT31;55421;51.600;5.718;2023-06-14T03:34:29;18.57;46.78
68439;SHT31;55421;51.600;5.718;2023-06-14T03:36:55;18.58;46.79
68439;SHT31;55421;51.600;5.718;2023-06-14T03:39:22;18.58;46.83
68439;SHT31;55421;51.600;5.718;2023-06-14T03:41:48;18.56;46.87
68439;SHT31;55421;51.600;5.718;2023-06-14T03:44:15;18.56;46.96
68439;SHT31;55421;51.600;5.718;2023-06-14T03:46:45;18.57;47.00
68439;SHT31;55421;51.600;5.718;2023-06-14T03:49:12;18.56;47.01
68439;SHT31;55421;51.600;5.718;2023-06-14T03:51:40;18.55;47.04
68439;SHT31;55421;51.600;5.718;2023-06-14T03:54:08;18.55;47.11
68439;SHT31;55421;51.600;5.718;2023-06-14T03:56:34;18.54;47.19
68439;SHT31;55421;51.600;5.718;2023-06-14T03:59:02;18.54;47.33
68439;SHT31;55421;51.600;5.718;2023-06-14T04:01:28;18.57;47.39
68439;SHT31;55421;51.600;5.718;2023-06-14T04:03:56;18.62;47.40
68439;SHT31;55421;51.600;5.718;2023-06-14T04:06:24;18.68;47.38
68439;SHT31;55421;51.600;5.718;2023-06-14T04:08:51;18.72;47.40
68439;SHT31;55421;51.600;5.718;2023-06-14T04:11:18;18.79;47.36
68439;SHT31;55421;51.600;5.718;2023-06-14T04:13:45;18.88;47.29
68439;SHT31;55421;51.600;5.718;2023-06-14T04:16:14;19.16;47.02
68439;SHT31;55421;51.600;5.718;2023-06-14T04:18:41;19.59;46.44
68439;SHT31;55421;51.600;5.718;2023-06-14T04:21:07;19.97;45.92
68439;SHT31;55421;51.600;5.718;2023-06-14T04:23:34;20.30;45.42
68439;SHT31;55421;51.600;5.718;2023-06-14T04:26:01;20.61;45.01
68439;SHT31;55421;51.600;5.718;2023-06-14T04:28:27;20.92;44.57
68439;SHT31;55421;51.600;5.718;2023-06-14T04:30:54;21.18;44.10
68439;SHT31;55421;51.600;5.718;2023-06-14T04:33:21;21.41;43.78
68439;SHT31;55421;51.600;5.718;2023-06-14T04:35:51;21.63;43.46
68439;SHT31;55421;51.600;5.718;2023-06-14T04:38:19;21.82;43.06
68439;SHT31;55421;51.600;5.718;2023-06-14T04:40:51;21.98;42.71
68439;SHT31;55421;51.600;5.718;2023-06-14T04:43:19;22.10;42.48
68439;SHT31;55421;51.600;5.718;2023-06-14T04:45:51;22.17;42.25
68439;SHT31;55421;51.600;5.718;2023-06-14T04:48:18;22.12;42.23
68439;SHT31;55421;51.600;5.718;2023-06-14T04:50:46;21.95;42.42
68439;SHT31;55421;51.600;5.718;2023-06-14T04:53:13;21.74;42.55
68439;SHT31;55421;51.600;5.718;2023-06-14T04:55:40;21.50;42.76
68439;SHT31;55421;51.600;5.718;2023-06-14T04:58:11;21.32;43.06
68439;SHT31;55421;51.600;5.718;2023-06-14T05:00:39;21.18;43.36
68439;SHT31;55421;51.600;5.718;2023-06-14T05:03:05;21.08;43.48
68439;SHT31;55421;51.600;5.718;2023-06-14T05:05:32;21.02;43.68
68439;SHT31;55421;51.600;5.718;2023-06-14T05:08:00;20.99;43.78
68439;SHT31;55421;51.600;5.718;2023-06-14T05:10:26;20.97;43.95
68439;SHT31;55421;51.600;5.718;2023-06-14T05:12:53;20.96;44.04
68439;SHT31;55421;51.600;5.718;2023-06-14T05:15:20;20.93;44.18
68439;SHT31;55421;51.600;5.718;2023-06-14T05:17:51;20.90;44.19
68439;SHT31;55421;51.600;5.718;2023-06-14T05:20:21;20.89;44.25
68439;SHT31;55421;51.600;5.718;2023-06-14T05:22:51;20.88;44.32
68439;SHT31;55421;51.600;5.718;2023-06-14T05:25:19;20.87;44.33
68439;SHT31;55421;51.600;5.718;2023-06-14T05:27:47;20.88;44.43
68439;SHT31;55421;51.600;5.718;2023-06-14T05:30:15;20.92;44.56
68439;SHT31;55421;51.600;5.718;2023-06-14T05:32:41;20.98;44.54
68439;SHT31;55421;51.600;5.718;2023-06-14T05:35:08;20.99;44.47
68439;SHT31;55421;51.600;5.718;2023-06-14T05:37:35;21.03;44.51
68439;SHT31;55421;51.600;5.718;2023-06-14T05:40:01;21.08;44.53
68439;SHT31;55421;51.600;5.718;2023-06-14T05:42:31;21.11;44.50
68439;SHT31;55421;51.600;5.718;2023-06-14T05:44:59;21.17;44.50
68439;SHT31;55421;51.600;5.718;2023-06-14T05:47:26;21.22;44.41
68439;SHT31;55421;51.600;5.718;2023-06-14T05:49:53;21.29;44.33
68439;SHT31;55421;51.600;5.718;2023-06-14T05:52:21;21.33;44.40
68439;SHT31;55421;51.600;5.718;2023-06-14T05:54:47;21.39;44.27
68439;SHT31;55421;51.600;5.718;2023-06-14T05:57:14;21.45;43.85
68439;SHT31;55421;51.600;5.718;2023-06-14T05:59:41;21.52;43.96
68439;SHT31;55421;51.600;5.718;2023-06-14T06:02:07;21.59;43.76
68439;SHT31;55421;51.600;5.718;2023-06-14T06:04:34;21.66;43.71
68439;SHT31;55421;51.600;5.718;2023-06-14T06:07:01;21.72;43.63
68439;SHT31;55421;51.600;5.718;2023-06-14T06:09:27;21.81;43.34
68439;SHT31;55421;51.600;5.718;2023-06-14T06:11:54;21.88;43.24
68439;SHT31;55421;51.600;5.718;2023-06-14T06:14:21;21.94;42.99
68439;SHT31;55421;51.600;5.718;2023-06-14T06:16:47;22.02;43.03
68439;SHT31;55421;51.600;5.718;2023-06-14T06:19:14;22.09;42.81
68439;SHT31;55421;51.600;5.718;2023-06-14T06:21:41;22.17;42.81
68439;SHT31;55421;51.600;5.718;2023-06-14T06:24:07;22.22;42.68
68439;SHT31;55421;51.600;5.718;2023-06-14T06:26:34;22.28;42.56
68439;SHT31;55421;51.600;5.718;2023-06-14T06:29:00;22.32;42.33
68439;SHT31;55421;51.600;5.718;2023-06-14T06:31:28;22.35;42.14
68439;SHT31;55421;51.600;5.718;2023-06-14T06:33:55;22.40;42.39
68439;SHT31;55421;51.600;5.718;2023-06-14T06:36:22;22.45;42.06
68439;SHT31;55421;51.600;5.718;2023-06-14T06:38:48;22.50;42.06
68439;SHT31;55421;51.600;5.718;2023-06-14T06:41:15;22.57;42.24
68439;SHT31;55421;51.600;5.718;2023-06-14T06:43:42;22.65;42.10
68439;SHT31;55421;51.600;5.718;2023-06-14T06:46:08;22.73;42.13
68439;SHT31;55421;51.600;5.718;2023-06-14T06:48:35;22.80;41.83
68439;SHT31;55421;51.600;5.718;2023-06-14T06:51:01;22.86;41.74
68439;SHT31;55421;51.600;5.718;2023-06-14T06:53:28;22.94;41.60
68439;SHT31;55421;51.600;5.718;2023-06-14T06:55:54;23.00;41.34
68439;SHT31;55421;51.600;5.718;2023-06-14T06:58:21;23.07;41.47
68439;SHT31;55421;51.600;5.718;2023-06-14T07:00:48;23.16;41.14
68439;SHT31;55421;51.600;5.718;2023-06-14T07:03:14;23.21;41.03
68439;SHT31;55421;51.600;5.718;2023-06-14T07:05:41;23.25;40.95
68439;SHT31;55421;51.600;5.718;2023-06-14T07:08:08;23.31;41.04
68439;SHT31;55421;51.600;5.718;2023-06-14T07:10:34;23.39;40.96
68439;SHT31;55421;51.600;5.718;2023-06-14T07:13:01;23.45;40.88
68439;SHT31;55421;51.600;5.718;2023-06-14T07:15:28;23.54;40.65
68439;SHT31;55421;51.600;5.718;2023-06-14T07:17:55;23.62;40.54
68439;SHT31;55421;51.600;5.718;2023-06-14T07:20:25;23.70;40.45
68439;SHT31;55421;51.600;5.718;2023-06-14T07:22:52;23.80;40.31
68439;SHT31;55421;51.600;5.718;2023-06-14T07:25:18;23.88;39.63
68439;SHT31;55421;51.600;5.718;2023-06-14T07:27:46;23.94;39.51
68439;SHT31;55421;51.600;5.718;2023-06-14T07:30:13;23.95;39.26
68439;SHT31;55421;51.600;5.718;2023-06-14T07:32:40;23.99;39.05
68439;SHT31;55421;51.600;5.718;2023-06-14T07:35:06;24.07;38.94
68439;SHT31;55421;51.600;5.718;2023-06-14T07:37:33;24.15;38.69
68439;SHT31;55421;51.600;5.718;2023-06-14T07:40:00;24.23;38.65
68439;SHT31;55421;51.600;5.718;2023-06-14T07:42:30;24.30;38.40
68439;SHT31;55421;51.600;5.718;2023-06-14T07:44:57;24.35;38.13
68439;SHT31;55421;51.600;5.718;2023-06-14T07:47:23;24.43;37.94
68439;SHT31;55421;51.600;5.718;2023-06-14T07:49:50;24.48;37.82
68439;SHT31;55421;51.600;5.718;2023-06-14T07:52:16;24.54;37.96
68439;SHT31;55421;51.600;5.718;2023-06-14T07:54:43;24.61;38.00
68439;SHT31;55421;51.600;5.718;2023-06-14T07:57:10;24.69;38.02
68439;SHT31;55421;51.600;5.718;2023-06-14T07:59:37;24.72;37.88
68439;SHT31;55421;51.600;5.718;2023-06-14T08:02:03;24.74;37.72
68439;SHT31;55421;51.600;5.718;2023-06-14T08:04:31;24.74;37.20
68439;SHT31;55421;51.600;5.718;2023-06-14T08:06:59;24.74;37.23
68439;SHT31;55421;51.600;5.718;2023-06-14T08:09:26;24.80;36.86
68439;SHT31;55421;51.600;5.718;2023-06-14T08:11:55;24.89;37.02
68439;SHT31;55421;51.600;5.718;2023-06-14T08:14:22;25.00;36.99
68439;SHT31;55421;51.600;5.718;2023-06-14T08:16:49;25.10;37.11
68439;SHT31;55421;51.600;5.718;2023-06-14T08:19:16;25.15;36.47
68439;SHT31;55421;51.600;5.718;2023-06-14T08:21:42;25.18;36.20
68439;SHT31;55421;51.600;5.718;2023-06-14T08:24:12;25.24;36.34
68439;SHT31;55421;51.600;5.718;2023-06-14T08:26:40;25.33;36.24
68439;SHT31;55421;51.600;5.718;2023-06-14T08:29:06;25.40;35.98
68439;SHT31;55421;51.600;5.718;2023-06-14T08:31:33;25.46;35.24
68439;SHT31;55421;51.600;5.718;2023-06-14T08:34:00;25.47;35.07
68439;SHT31;55421;51.600;5.718;2023-06-14T08:36:26;25.49;35.24
68439;SHT31;55421;51.600;5.718;2023-06-14T08:38:53;25.55;35.48
68439;SHT31;55421;51.600;5.718;2023-06-14T08:41:23;25.66;34.68
68439;SHT31;55421;51.600;5.718;2023-06-14T08:43:51;25.76;34.01
68439;SHT31;55421;51.600;5.718;2023-06-14T08:46:18;25.82;33.65
68439;SHT31;55421;51.600;5.718;2023-06-14T08:48:48;25.86;33.38
68439;SHT31;55421;51.600;5.718;2023-06-14T08:51:19;25.91;32.98
68439;SHT31;55421;51.600;5.718;2023-06-14T08:53:52;26.00;33.20
68439;SHT31;55421;51.600;5.718;2023-06-14T08:56:27;26.09;32.85
68439;SHT31;55421;51.600;5.718;2023-06-14T08:58:55;26.10;32.01
68439;SHT31;55421;51.600;5.718;2023-06-14T09:01:27;26.10;31.72
68439;SHT31;55421;51.600;5.718;2023-06-14T09:03:53;26.14;31.63
68439;SHT31;55421;51.600;5.718;2023-06-14T09:06:21;26.20;31.66
68439;SHT31;55421;51.600;5.718;2023-06-14T09:08:49;26.27;31.79
68439;SHT31;55421;51.600;5.718;2023-06-14T09:11:16;26.38;31.81
68439;SHT31;55421;51.600;5.718;2023-06-14T09:13:45;26.51;31.48
68439;SHT31;55421;51.600;5.718;2023-06-14T09:16:13;26.61;31.19
68439;SHT31;55421;51.600;5.718;2023-06-14T09:18:40;26.66;30.94
68439;SHT31;55421;51.600;5.718;2023-06-14T09:21:10;26.67;30.87
68439;SHT31;55421;51.600;5.718;2023-06-14T09:23:38;26.69;30.16
68439;SHT31;55421;51.600;5.718;2023-06-14T09:26:11;26.73;29.60
68439;SHT31;55421;51.600;5.718;2023-06-14T09:28:41;26.78;29.52
68439;SHT31;55421;51.600;5.718;2023-06-14T09:31:11;26.85;29.82
68439;SHT31;55421;51.600;5.718;2023-06-14T09:33:42;26.89;30.10
68439;SHT31;55421;51.600;5.718;2023-06-14T09:36:17;26.92;30.46
68439;SHT31;55421;51.600;5.718;2023-06-14T09:38:57;27.01;30.86
68439;SHT31;55421;51.600;5.718;2023-06-14T09:41:36;27.10;30.68
68439;SHT31;55421;51.600;5.718;2023-06-14T09:44:07;27.22;30.97
68439;SHT31;55421;51.600;5.718;2023-06-14T09:46:35;27.27;29.76
68439;SHT31;55421;51.600;5.718;2023-06-14T09:49:03;27.25;29.68
68439;SHT31;55421;51.600;5.718;2023-06-14T09:51:31;27.23;29.71
68439;SHT31;55421;51.600;5.718;2023-06-14T09:53:59;27.22;29.89
68439;SHT31;55421;51.600;5.718;2023-06-14T09:56:32;27.22;29.89
68439;SHT31;55421;51.600;5.718;2023-06-14T09:59:04;27.28;29.63
68439;SHT31;55421;51.600;5.718;2023-06-14T10:01:35;27.28;29.56
68439;SHT31;55421;51.600;5.718;2023-06-14T10:04:09;27.27;30.29
68439;SHT31;55421;51.600;5.718;2023-06-14T10:06:37;27.33;29.97
68439;SHT31;55421;51.600;5.718;2023-06-14T10:09:09;27.36;29.74
68439;SHT31;55421;51.600;5.718;2023-06-14T10:11:37;27.38;29.26
68439;SHT31;55421;51.600;5.718;2023-06-14T10:14:10;27.43;29.64
68439;SHT31;55421;51.600;5.718;2023-06-14T10:16:41;27.46;29.46
68439;SHT31;55421;51.600;5.718;2023-06-14T10:19:23;27.48;29.72
68439;SHT31;55421;51.600;5.718;2023-06-14T10:22:11;27.58;29.91
68439;SHT31;55421;51.600;5.718;2023-06-14T10:24:45;27.65;29.71
68439;SHT31;55421;51.600;5.718;2023-06-14T10:27:15;27.71;29.78
68439;SHT31;55421;51.600;5.718;2023-06-14T10:32:19;27.82;29.46
68439;SHT31;55421;51.600;5.718;2023-06-14T10:34:53;27.88;29.37
68439;SHT31;55421;51.600;5.718;2023-06-14T10:37:24;27.94;29.85
68439;SHT31;55421;51.600;5.718;2023-06-14T10:39:51;27.97;29.91
68439;SHT31;55421;51.600;5.718;2023-06-14T10:42:19;28.03;30.21
68439;SHT31;55421;51.600;5.718;2023-06-14T10:44:50;28.08;30.07
68439;SHT31;55421;51.600;5.718;2023-06-14T10:47:29;28.08;30.11
68439;SHT31;55421;51.600;5.718;2023-06-14T10:50:08;28.06;30.24
68439;SHT31;55421;51.600;5.718;2023-06-14T10:52:40;28.03;30.43
68439;SHT31;55421;51.600;5.718;2023-06-14T10:55:10;28.09;30.53
68439;SHT31;55421;51.600;5.718;2023-06-14T11:00:13;28.12;29.84
68439;SHT31;55421;51.600;5.718;2023-06-14T11:05:28;28.18;29.92
68439;SHT31;55421;51.600;5.718;2023-06-14T11:11:31;28.29;30.25
68439;SHT31;55421;51.600;5.718;2023-06-14T11:14:02;28.35;30.07
68439;SHT31;55421;51.600;5.718;2023-06-14T11:16:28;28.43;30.62
68439;SHT31;55421;51.600;5.718;2023-06-14T11:18:55;28.52;30.35
68439;SHT31;55421;51.600;5.718;2023-06-14T11:21:22;28.48;29.68
68439;SHT31;55421;51.600;5.718;2023-06-14T11:23:51;28.42;29.68
68439;SHT31;55421;51.600;5.718;2023-06-14T11:26:25;28.43;29.53
68439;SHT31;55421;51.600;5.718;2023-06-14T11:29:00;28.43;29.47
68439;SHT31;55421;51.600;5.718;2023-06-14T11:31:27;28.43;29.94
68439;SHT31;55421;51.600;5.718;2023-06-14T11:33:55;28.39;29.99
68439;SHT31;55421;51.600;5.718;2023-06-14T11:36:23;28.39;29.85
68439;SHT31;55421;51.600;5.718;2023-06-14T11:39:05;28.40;29.61
68439;SHT31;55421;51.600;5.718;2023-06-14T11:41:39;28.37;29.17
68439;SHT31;55421;51.600;5.718;2023-06-14T11:44:08;28.43;29.42
68439;SHT31;55421;51.600;5.718;2023-06-14T11:46:35;28.49;29.27
68439;SHT31;55421;51.600;5.718;2023-06-14T11:49:02;28.48;29.21
68439;SHT31;55421;51.600;5.718;2023-06-14T11:51:31;28.41;29.41
68439;SHT31;55421;51.600;5.718;2023-06-14T11:54:00;28.38;29.43
68439;SHT31;55421;51.600;5.718;2023-06-14T11:56:30;28.37;29.56
68439;SHT31;55421;51.600;5.718;2023-06-14T11:58:58;28.37;29.71
68439;SHT31;55421;51.600;5.718;2023-06-14T12:01:24;28.40;29.56
68439;SHT31;55421;51.600;5.718;2023-06-14T12:03:52;28.44;29.29
68439;SHT31;55421;51.600;5.718;2023-06-14T12:06:27;28.46;28.85
68439;SHT31;55421;51.600;5.718;2023-06-14T12:08:58;28.47;28.99
68439;SHT31;55421;51.600;5.718;2023-06-14T12:11:31;28.47;28.81
68439;SHT31;55421;51.600;5.718;2023-06-14T12:13:59;28.49;28.68
68439;SHT31;55421;51.600;5.718;2023-06-14T12:16:32;28.53;28.83
68439;SHT31;55421;51.600;5.718;2023-06-14T12:19:00;28.51;28.71
68439;SHT31;55421;51.600;5.718;2023-06-14T12:21:36;28.42;28.90
68439;SHT31;55421;51.600;5.718;2023-06-14T12:24:05;28.40;28.49
68439;SHT31;55421;51.600;5.718;2023-06-14T12:26:33;28.37;28.70
68439;SHT31;55421;51.600;5.718;2023-06-14T12:28:59;28.34;29.06
68439;SHT31;55421;51.600;5.718;2023-06-14T12:31:26;28.32;29.07
68439;SHT31;55421;51.600;5.718;2023-06-14T12:33:52;28.34;29.22
68439;SHT31;55421;51.600;5.718;2023-06-14T12:36:19;28.38;29.80
68439;SHT31;55421;51.600;5.718;2023-06-14T12:38:45;28.38;29.23
68439;SHT31;55421;51.600;5.718;2023-06-14T12:41:12;28.33;28.69
68439;SHT31;55421;51.600;5.718;2023-06-14T12:43:40;28.27;29.12
68439;SHT31;55421;51.600;5.718;2023-06-14T12:46:06;28.24;29.54
68439;SHT31;55421;51.600;5.718;2023-06-14T12:48:33;28.21;29.65
68439;SHT31;55421;51.600;5.718;2023-06-14T12:51:00;28.14;29.77
68439;SHT31;55421;51.600;5.718;2023-06-14T12:53:27;28.10;29.58
68439;SHT31;55421;51.600;5.718;2023-06-14T12:55:53;28.08;29.83
68439;SHT31;55421;51.600;5.718;2023-06-14T12:58:20;28.07;29.64
68439;SHT31;55421;51.600;5.718;2023-06-14T13:00:47;28.04;29.41
68439;SHT31;55421;51.600;5.718;2023-06-14T13:03:14;28.04;29.46
68439;SHT31;55421;51.600;5.718;2023-06-14T13:05:40;28.02;29.52
68439;SHT31;55421;51.600;5.718;2023-06-14T13:08:08;28.02;30.06
68439;SHT31;55421;51.600;5.718;2023-06-14T13:10:35;28.02;30.04
68439;SHT31;55421;51.600;5.718;2023-06-14T13:13:02;27.99;29.88
68439;SHT31;55421;51.600;5.718;2023-06-14T13:15:29;27.92;30.12
68439;SHT31;55421;51.600;5.718;2023-06-14T13:17:55;27.89;30.18
68439;SHT31;55421;51.600;5.718;2023-06-14T13:20:22;27.90;30.14
68439;SHT31;55421;51.600;5.718;2023-06-14T13:22:48;27.86;30.04
68439;SHT31;55421;51.600;5.718;2023-06-14T13:25:15;27.85;30.28
68439;SHT31;55421;51.600;5.718;2023-06-14T13:27:42;27.85;29.82
68439;SHT31;55421;51.600;5.718;2023-06-14T13:30:08;27.84;29.71
68439;SHT31;55421;51.600;5.718;2023-06-14T13:32:35;27.85;30.02
68439;SHT31;55421;51.600;5.718;2023-06-14T13:35:02;27.80;30.10
68439;SHT31;55421;51.600;5.718;2023-06-14T13:37:30;27.76;30.30
68439;SHT31;55421;51.600;5.718;2023-06-14T13:39:56;27.78;29.77
68439;SHT31;55421;51.600;5.718;2023-06-14T13:42:23;27.77;29.40
68439;SHT31;55421;51.600;5.718;2023-06-14T13:44:50;27.77;29.82
68439;SHT31;55421;51.600;5.718;2023-06-14T13:47:17;27.76;29.90
68439;SHT31;55421;51.600;5.718;2023-06-14T13:49:44;27.76;29.87
68439;SHT31;55421;51.600;5.718;2023-06-14T13:52:11;27.74;29.95
68439;SHT31;55421;51.600;5.718;2023-06-14T13:54:39;27.69;29.94
68439;SHT31;55421;51.600;5.718;2023-06-14T13:57:06;27.65;30.14
68439;SHT31;55421;51.600;5.718;2023-06-14T13:59:33;27.61;30.60
68439;SHT31;55421;51.600;5.718;2023-06-14T14:02:00;27.59;30.37
68439;SHT31;55421;51.600;5.718;2023-06-14T14:04:29;27.56;30.51
68439;SHT31;55421;51.600;5.718;2023-06-14T14:06:55;27.51;30.63
68439;SHT31;55421;51.600;5.718;2023-06-14T14:09:22;27.52;31.08
68439;SHT31;55421;51.600;5.718;2023-06-14T14:11:49;27.55;31.09
68439;SHT31;55421;51.600;5.718;2023-06-14T14:14:15;27.55;30.85
68439;SHT31;55421;51.600;5.718;2023-06-14T14:16:42;27.47;30.59
68439;SHT31;55421;51.600;5.718;2023-06-14T14:19:09;27.43;30.86
68439;SHT31;55421;51.600;5.718;2023-06-14T14:21:35;27.40;31.07
68439;SHT31;55421;51.600;5.718;2023-06-14T14:24:02;27.35;30.85
68439;SHT31;55421;51.600;5.718;2023-06-14T14:26:29;27.31;30.78
68439;SHT31;55421;51.600;5.718;2023-06-14T14:28:56;27.29;30.68
68439;SHT31;55421;51.600;5.718;2023-06-14T14:31:26;27.30;30.88
68439;SHT31;55421;51.600;5.718;2023-06-14T14:33:53;27.28;31.19
68439;SHT31;55421;51.600;5.718;2023-06-14T14:36:19;27.26;31.32
68439;SHT31;55421;51.600;5.718;2023-06-14T14:38:46;27.22;31.32
68439;SHT31;55421;51.600;5.718;2023-06-14T14:41:13;27.20;31.56
68439;SHT31;55421;51.600;5.718;2023-06-14T14:43:40;27.21;31.33
68439;SHT31;55421;51.600;5.718;2023-06-14T14:46:06;27.19;31.38
68439;SHT31;55421;51.600;5.718;2023-06-14T14:48:33;27.18;31.88
68439;SHT31;55421;51.600;5.718;2023-06-14T14:50:59;27.18;31.73
68439;SHT31;55421;51.600;5.718;2023-06-14T14:53:26;27.16;31.68
68439;SHT31;55421;51.600;5.718;2023-06-14T14:55:52;27.12;31.89
68439;SHT31;55421;51.600;5.718;2023-06-14T14:58:19;27.13;31.88
68439;SHT31;55421;51.600;5.718;2023-06-14T15:00:45;27.09;31.67
68439;SHT31;55421;51.600;5.718;2023-06-14T15:03:13;27.04;31.94
68439;SHT31;55421;51.600;5.718;2023-06-14T15:05:40;27.02;32.78
68439;SHT31;55421;51.600;5.718;2023-06-14T15:08:07;26.95;32.95
68439;SHT31;55421;51.600;5.718;2023-06-14T15:10:38;26.88;32.70
68439;SHT31;55421;51.600;5.718;2023-06-14T15:13:09;26.81;32.91
68439;SHT31;55421;51.600;5.718;2023-06-14T15:15:36;26.74;33.15
68439;SHT31;55421;51.600;5.718;2023-06-14T15:18:03;26.72;33.27
68439;SHT31;55421;51.600;5.718;2023-06-14T15:20:29;26.73;32.77
68439;SHT31;55421;51.600;5.718;2023-06-14T15:22:56;26.75;33.22
68439;SHT31;55421;51.600;5.718;2023-06-14T15:25:26;26.76;33.35
68439;SHT31;55421;51.600;5.718;2023-06-14T15:27:56;26.77;32.78
68439;SHT31;55421;51.600;5.718;2023-06-14T15:30:22;26.75;32.44
68439;SHT31;55421;51.600;5.718;2023-06-14T15:32:49;26.75;32.64
68439;SHT31;55421;51.600;5.718;2023-06-14T15:35:16;26.76;32.68
68439;SHT31;55421;51.600;5.718;2023-06-14T15:37:47;26.77;32.56
68439;SHT31;55421;51.600;5.718;2023-06-14T15:40:14;26.76;33.06
68439;SHT31;55421;51.600;5.718;2023-06-14T15:42:42;26.72;33.15
68439;SHT31;55421;51.600;5.718;2023-06-14T15:45:08;26.67;33.22
68439;SHT31;55421;51.600;5.718;2023-06-14T15:47:36;26.63;33.25
68439;SHT31;55421;51.600;5.718;2023-06-14T15:50:03;26.61;32.65